createdAt,value
2018-08-22T00:01:57.576Z,3.60
2018-08-22T00:04:24.325Z,3.20
2018-08-22T00:06:50.795Z,2.00
2018-08-22T00:09:17.259Z,2.00
2018-08-22T00:11:43.721Z,2.00
2018-08-22T00:14:10.472Z,4.00
2018-08-22T00:16:36.944Z,2.40
2018-08-22T00:19:03.416Z,1.80
2018-08-22T00:21:30.201Z,2.00
2018-08-22T00:23:56.655Z,2.00
2018-08-22T00:26:23.134Z,2.00
2018-08-22T00:28:49.599Z,4.00
2018-08-22T00:31:16.366Z,3.60
2018-08-22T00:33:42.830Z,2.00
2018-08-22T00:36:09.302Z,2.40
2018-08-22T00:38:35.792Z,4.00
2018-08-22T00:41:02.572Z,2.00
2018-08-22T00:43:29.052Z,4.00
2018-08-22T00:45:55.528Z,3.20
2018-08-22T00:48:21.987Z,4.20
2018-08-22T00:50:48.794Z,4.00
2018-08-22T00:53:15.299Z,2.40
2018-08-22T00:55:41.807Z,2.00
2018-08-22T00:58:08.570Z,3.60
2018-08-22T01:00:35.170Z,3.60
2018-08-22T01:03:01.736Z,3.20
2018-08-22T01:05:28.317Z,3.60
2018-08-22T01:07:54.895Z,4.00
2018-08-22T01:10:21.393Z,4.00
2018-08-22T01:12:48.087Z,4.00
2018-08-22T01:15:15.099Z,4.00
2018-08-22T01:17:41.675Z,3.60
2018-08-22T01:20:08.270Z,3.20
2018-08-22T01:22:35.206Z,1.20
2018-08-22T01:25:02.706Z,4.00
2018-08-22T01:27:30.084Z,2.00
2018-08-22T01:29:56.747Z,4.00
2018-08-22T01:32:23.276Z,4.00
2018-08-22T01:34:50.228Z,2.00
2018-08-22T01:37:16.841Z,4.40
2018-08-22T01:39:43.675Z,4.00
2018-08-22T01:42:10.319Z,2.00
2018-08-22T01:44:37.190Z,3.60
2018-08-22T01:47:03.665Z,4.00
2018-08-22T01:49:30.633Z,2.00
2018-08-22T01:51:57.127Z,3.60
2018-08-22T01:54:23.899Z,4.60
2018-08-22T01:56:50.406Z,3.60
2018-08-22T05:16:09.612Z,5.40
2018-08-22T05:18:36.323Z,3.20
2018-08-22T05:21:03.482Z,8.00
2018-08-22T05:23:30.038Z,6.20
2018-08-22T05:25:56.554Z,6.20
2018-08-22T05:28:23.349Z,5.00
2018-08-22T05:30:51.245Z,7.00
2018-08-22T05:33:17.917Z,5.00
2018-08-22T05:35:45.233Z,7.60
2018-08-22T05:38:11.754Z,7.20
2018-08-22T05:40:38.340Z,8.00
2018-08-22T05:43:04.943Z,8.20
2018-08-22T05:45:31.429Z,7.40
2018-08-22T05:47:57.886Z,7.00
2018-08-22T05:50:24.670Z,7.60
2018-08-22T05:52:51.118Z,7.20
2018-08-22T05:55:17.631Z,5.20
2018-08-22T05:57:44.413Z,8.00
2018-08-22T06:00:11.993Z,8.20
2018-08-22T06:02:47.318Z,5.80
2018-08-22T06:07:46.322Z,9.20
2018-08-22T06:10:14.114Z,7.00
2018-08-22T06:12:42.033Z,7.20
2018-08-22T06:15:08.873Z,8.00
2018-08-22T06:17:39.889Z,8.00
2018-08-22T06:20:07.679Z,8.60
2018-08-22T06:22:34.186Z,8.00
2018-08-22T06:25:00.853Z,8.80
2018-08-22T06:27:27.685Z,7.40
2018-08-22T06:29:54.840Z,8.20
2018-08-22T06:32:21.660Z,6.80
2018-08-22T06:34:48.522Z,8.40
2018-08-22T06:37:15.043Z,8.00
2018-08-22T06:39:41.686Z,7.60
2018-08-22T06:42:08.474Z,8.00
2018-08-22T06:44:35.287Z,6.40
2018-08-22T06:47:01.740Z,9.00
2018-08-22T06:49:28.477Z,9.00
2018-08-22T06:51:54.980Z,7.20
2018-08-22T06:54:22.164Z,8.00
2018-08-22T06:56:48.922Z,8.00
2018-08-22T06:59:15.469Z,10.60
2018-08-22T07:01:41.935Z,9.40
2018-08-22T07:04:08.862Z,9.00
2018-08-22T07:06:35.361Z,9.80
2018-08-22T07:09:02.003Z,10.00
2018-08-22T07:11:28.908Z,9.20
2018-08-22T07:13:55.488Z,12.00
2018-08-22T07:16:21.977Z,9.00
2018-08-22T07:18:48.722Z,6.00
2018-08-22T07:21:15.165Z,6.60
2018-08-22T07:23:41.666Z,8.00
2018-08-22T07:26:08.422Z,9.00
2018-08-22T07:28:35.677Z,9.20
2018-08-22T07:31:02.137Z,9.00
2018-08-22T07:33:28.905Z,9.20
2018-08-22T07:35:55.426Z,9.00
2018-08-22T07:38:22.655Z,8.20
2018-08-22T07:40:50.955Z,7.00
2018-08-22T07:43:17.396Z,7.40
2018-08-22T07:45:43.889Z,10.00
2018-08-22T07:48:10.674Z,7.80
2018-08-22T07:50:38.641Z,10.00
2018-08-22T07:53:05.133Z,11.00
2018-08-22T07:55:31.922Z,10.40
2018-08-22T07:57:58.410Z,6.60
2018-08-22T08:00:26.266Z,10.80
2018-08-22T08:02:53.064Z,8.80
2018-08-22T08:05:19.609Z,10.20
2018-08-22T08:07:46.053Z,10.00
2018-08-22T08:10:12.822Z,8.40
2018-08-22T08:12:39.304Z,8.20
2018-08-22T08:15:05.810Z,12.00
2018-08-22T08:17:33.068Z,11.40
2018-08-22T08:19:59.570Z,7.40
2018-08-22T08:22:26.065Z,11.80
2018-08-22T08:24:52.817Z,10.60
2018-08-22T08:27:19.277Z,8.40
2018-08-22T08:29:46.393Z,8.80
2018-08-22T08:32:13.136Z,10.80
2018-08-22T08:34:39.659Z,11.00
2018-08-22T08:37:06.207Z,8.40
2018-08-22T08:39:32.983Z,9.60
2018-08-22T08:41:59.515Z,11.00
2018-08-22T08:44:26.323Z,8.00
2018-08-22T08:46:55.759Z,9.60
2018-08-22T08:49:23.468Z,12.00
2018-08-22T08:51:49.999Z,12.00
2018-08-22T08:54:16.787Z,9.60
2018-08-22T08:56:43.263Z,9.20
2018-08-22T08:59:09.881Z,9.60
2018-08-22T09:01:37.573Z,11.60
2018-08-22T09:04:04.149Z,10.40
2018-08-22T09:06:30.690Z,6.40
2018-08-22T09:08:57.408Z,9.00
2018-08-22T09:11:25.611Z,9.40
2018-08-22T09:13:52.097Z,9.80
2018-08-22T09:16:18.886Z,9.00
2018-08-22T09:18:45.340Z,11.40
2018-08-22T09:21:11.950Z,11.40
2018-08-22T09:23:38.720Z,12.00
2018-08-22T09:28:36.428Z,10.80
2018-08-22T09:31:03.177Z,9.00
2018-08-22T09:33:29.765Z,10.40
2018-08-22T09:35:56.268Z,11.20
2018-08-22T09:38:23.795Z,11.20
2018-08-22T09:40:51.946Z,10.00
2018-08-22T09:43:19.032Z,13.80
2018-08-22T09:45:45.850Z,9.60
2018-08-22T09:48:12.429Z,9.00
2018-08-22T09:50:39.938Z,8.00
2018-08-22T09:53:06.775Z,12.20
2018-08-22T09:55:33.234Z,11.00
2018-08-22T09:57:59.713Z,10.00
2018-08-22T10:00:26.970Z,9.60
2018-08-22T10:02:54.070Z,10.00
2018-08-22T10:05:20.546Z,9.80
2018-08-22T10:07:47.350Z,11.40
2018-08-22T10:10:13.849Z,10.20
2018-08-22T10:12:41.028Z,10.40
2018-08-22T10:15:07.509Z,9.40
2018-08-22T10:17:34.916Z,11.20
2018-08-22T10:20:01.726Z,10.80
2018-08-22T10:22:28.209Z,10.80
2018-08-22T10:24:54.721Z,12.00
2018-08-22T10:27:21.518Z,11.40
2018-08-22T10:29:47.981Z,11.40
2018-08-22T10:32:14.443Z,6.20
2018-08-22T10:34:43.043Z,10.40
2018-08-22T10:37:11.483Z,10.00
2018-08-22T10:39:39.357Z,10.00
2018-08-22T10:42:06.120Z,7.40
2018-08-22T10:44:33.835Z,9.00
2018-08-22T10:47:00.342Z,8.20
2018-08-22T10:49:27.090Z,7.20
2018-08-22T10:51:53.582Z,9.00
2018-08-22T10:54:20.180Z,9.00
2018-08-22T10:56:47.012Z,7.80
2018-08-22T10:59:13.466Z,8.60
2018-08-22T11:01:39.909Z,9.60
2018-08-22T11:04:06.712Z,12.20
2018-08-22T11:06:33.171Z,8.80
2018-08-22T11:08:59.687Z,8.20
2018-08-22T11:11:26.466Z,9.20
2018-08-22T11:13:53.110Z,10.20
2018-08-22T11:16:19.638Z,9.00
2018-08-22T11:18:50.292Z,9.20
2018-08-22T11:21:16.770Z,6.80
2018-08-22T11:23:43.224Z,8.20
2018-08-22T11:26:09.990Z,9.00
2018-08-22T11:28:36.475Z,8.80
2018-08-22T11:31:02.945Z,8.20
2018-08-22T11:33:29.686Z,7.20
2018-08-22T11:35:56.179Z,7.20
2018-08-22T11:38:22.721Z,6.20
2018-08-22T11:40:50.477Z,7.80
2018-08-22T11:43:16.939Z,6.20
2018-08-22T11:45:43.418Z,8.00
2018-08-22T11:48:10.194Z,6.00
2018-08-22T11:50:36.677Z,7.00
2018-08-22T11:53:03.202Z,9.00
2018-08-22T11:55:30.026Z,8.40
2018-08-22T11:57:57.478Z,10.20
2018-08-22T12:00:23.967Z,9.00
2018-08-22T12:02:50.784Z,8.80
2018-08-22T12:05:17.243Z,8.20
2018-08-22T12:07:44.486Z,5.80
2018-08-22T12:10:11.260Z,5.60
2018-08-22T12:12:37.717Z,4.00
2018-08-22T12:15:04.190Z,5.20
2018-08-22T12:17:31.221Z,7.00
2018-08-22T12:20:03.165Z,7.00
2018-08-22T12:22:30.189Z,5.00
2018-08-22T12:24:56.970Z,5.20
2018-08-22T12:27:23.613Z,5.00
2018-08-22T12:29:50.125Z,5.60
2018-08-22T12:32:18.219Z,6.40
2018-08-22T12:34:45.353Z,5.80
2018-08-22T12:37:11.807Z,5.80
2018-08-22T12:39:38.551Z,5.80
2018-08-22T12:42:05.011Z,5.40
2018-08-22T12:44:31.499Z,6.00
2018-08-22T12:46:58.307Z,6.80
2018-08-22T12:49:24.770Z,3.80
2018-08-22T12:51:52.322Z,6.80
2018-08-22T12:54:19.113Z,6.00
2018-08-22T12:56:45.601Z,6.00
2018-08-22T12:59:12.082Z,6.80
2018-08-22T13:01:38.825Z,6.60
2018-08-22T13:04:05.301Z,4.60
2018-08-22T13:06:32.495Z,5.40
2018-08-22T13:08:59.242Z,4.20
2018-08-22T13:11:26.492Z,5.00
2018-08-22T13:13:55.642Z,6.60
2018-08-22T13:16:22.448Z,3.80
2018-08-22T13:18:48.958Z,4.20
2018-08-22T13:21:15.425Z,7.00
2018-08-22T13:23:42.705Z,6.00
2018-08-22T13:26:09.157Z,6.00
2018-08-22T13:28:35.601Z,4.00
2018-08-22T13:31:02.345Z,6.20
2018-08-22T13:33:29.487Z,6.40
2018-08-22T13:35:55.948Z,8.00
2018-08-22T13:38:22.751Z,6.80
2018-08-22T13:40:49.206Z,5.40
2018-08-22T13:43:15.775Z,5.40
2018-08-22T13:45:42.243Z,6.00
2018-08-22T13:48:08.953Z,5.40
2018-08-22T13:50:35.702Z,7.20
2018-08-22T13:53:02.737Z,6.80
2018-08-22T13:55:29.361Z,6.00
2018-08-22T13:57:56.219Z,7.00
2018-08-22T14:00:22.866Z,6.40
2018-08-22T14:02:50.016Z,6.00
2018-08-22T14:05:16.819Z,6.00
2018-08-22T14:07:43.299Z,4.80
2018-08-22T14:10:09.785Z,8.40
2018-08-22T14:12:36.803Z,7.20
2018-08-22T14:15:03.405Z,7.00
2018-08-22T14:17:29.934Z,7.00
2018-08-22T14:19:57.899Z,7.60
2018-08-22T14:22:24.744Z,8.00
2018-08-22T14:24:54.238Z,8.20
2018-08-22T14:27:22.219Z,5.20
2018-08-22T14:29:48.797Z,8.20
2018-08-22T14:32:16.313Z,6.00
2018-08-22T14:34:43.231Z,7.00
2018-08-22T14:37:09.722Z,8.00
2018-08-22T14:39:36.470Z,8.60
2018-08-22T14:42:03.290Z,7.00
2018-08-22T14:44:29.797Z,10.00
2018-08-22T14:46:58.210Z,7.40
2018-08-22T14:49:25.045Z,8.40
2018-08-22T14:51:51.537Z,8.00
2018-08-22T14:54:18.019Z,7.00
2018-08-22T14:56:44.797Z,10.00
2018-08-22T14:59:11.292Z,9.60
2018-08-22T15:01:37.791Z,8.00
2018-08-22T15:04:06.938Z,9.20
2018-08-22T15:06:33.406Z,9.20
2018-08-22T15:09:00.569Z,12.40
2018-08-22T15:11:27.892Z,10.00
2018-08-22T15:13:54.389Z,11.40
2018-08-22T15:16:20.877Z,10.60
2018-08-22T15:18:47.682Z,12.00
2018-08-22T15:21:14.201Z,8.60
2018-08-22T15:23:40.739Z,11.60
2018-08-22T15:26:08.529Z,11.00
2018-08-22T15:28:34.989Z,12.20
2018-08-22T15:31:02.413Z,11.00
2018-08-22T15:33:29.154Z,12.00
2018-08-22T15:36:00.162Z,13.00
2018-08-22T15:38:46.381Z,10.20
2018-08-22T15:41:12.985Z,13.00
2018-08-22T15:43:40.584Z,12.20
2018-08-22T15:46:07.151Z,13.00
2018-08-22T15:48:33.600Z,14.60
2018-08-22T15:51:00.388Z,13.00
2018-08-22T15:53:27.943Z,12.40
2018-08-22T15:55:54.470Z,15.60
2018-08-22T15:58:21.285Z,15.80
2018-08-22T16:00:48.618Z,13.00
2018-08-22T16:03:15.301Z,12.20
2018-08-22T16:05:43.234Z,15.00
2018-08-22T16:08:10.900Z,15.40
2018-08-22T16:10:39.001Z,18.20
2018-08-22T16:13:07.900Z,15.20
2018-08-22T16:15:34.770Z,17.60
2018-08-22T16:18:01.981Z,14.60
2018-08-22T16:20:29.466Z,17.20
2018-08-22T16:22:55.970Z,17.40
2018-08-22T16:25:22.459Z,16.40
2018-08-22T16:27:49.299Z,16.00
2018-08-22T16:30:15.797Z,18.00
2018-08-22T16:32:42.545Z,14.40
2018-08-22T16:35:10.696Z,17.60
2018-08-22T16:37:37.185Z,13.20
2018-08-22T16:40:04.241Z,17.60
2018-08-22T16:42:31.213Z,17.40
2018-08-22T16:44:57.705Z,17.40
2018-08-22T16:47:24.210Z,17.00
2018-08-22T16:49:51.022Z,15.80
2018-08-22T16:52:17.483Z,18.20
2018-08-22T16:54:45.374Z,20.20
2018-08-22T16:57:12.167Z,19.00
2018-08-22T16:59:39.546Z,9.40
2018-08-22T17:02:06.177Z,16.00
2018-08-22T17:04:33.953Z,18.00
2018-08-22T17:07:01.467Z,16.00
2018-08-22T17:09:28.082Z,18.20
2018-08-22T17:11:56.107Z,17.80
2018-08-22T17:14:22.693Z,16.80
2018-08-22T17:16:49.760Z,16.60
2018-08-22T17:19:16.515Z,16.80
2018-08-22T17:21:44.342Z,19.60
2018-08-22T17:24:10.905Z,16.80
2018-08-22T17:26:39.246Z,16.40
2018-08-22T17:29:06.384Z,17.20
2018-08-22T17:31:36.627Z,17.40
2018-08-22T17:34:04.430Z,17.80
2018-08-22T17:36:30.910Z,18.60
2018-08-22T17:38:58.717Z,21.20
2018-08-22T17:41:25.534Z,14.20
2018-08-22T17:43:53.674Z,19.20
2018-08-22T17:46:20.184Z,18.00
2018-08-22T17:48:49.457Z,22.60
2018-08-22T17:51:16.003Z,21.60
2018-08-22T17:53:42.499Z,18.60
2018-08-22T17:56:11.133Z,25.60
2018-08-22T17:58:38.233Z,23.80
2018-08-22T18:01:04.741Z,23.60
2018-08-22T18:03:32.466Z,25.40
2018-08-22T18:05:58.922Z,22.00
2018-08-22T18:08:25.427Z,23.40
2018-08-22T18:10:53.187Z,22.80
2018-08-22T18:13:20.335Z,21.80
2018-08-22T18:15:47.760Z,25.40
2018-08-22T18:18:17.514Z,26.60
2018-08-22T18:20:44.975Z,28.60
2018-08-22T18:23:11.478Z,24.80
2018-08-22T18:25:38.892Z,24.40
2018-08-22T18:28:05.387Z,24.60
2018-08-22T18:30:32.556Z,24.20
2018-08-22T18:33:04.125Z,29.00
2018-08-22T18:35:30.729Z,27.80
2018-08-22T18:38:02.512Z,25.60
2018-08-22T18:40:29.290Z,32.80
2018-08-22T18:42:55.752Z,30.20
2018-08-22T18:45:22.225Z,26.60
2018-08-22T18:47:50.289Z,24.80
2018-08-22T18:50:16.810Z,27.00
2018-08-22T18:52:43.321Z,31.60
2018-08-22T18:55:12.387Z,31.00
2018-08-22T18:57:39.408Z,35.00
2018-08-22T19:00:06.713Z,30.40
2018-08-22T19:02:34.483Z,38.80
2018-08-22T19:05:05.657Z,34.00
2018-08-22T19:07:32.766Z,40.00
2018-08-22T19:10:00.147Z,40.40
2018-08-22T19:12:27.489Z,33.80
2018-08-22T19:14:55.529Z,40.00
2018-08-22T19:17:22.082Z,51.60
2018-08-22T19:19:49.206Z,39.20
2018-08-22T19:22:16.043Z,49.80
2018-08-22T19:24:43.110Z,37.00
2018-08-22T19:27:09.573Z,41.60
2018-08-22T19:29:37.025Z,46.60
2018-08-22T19:32:03.568Z,48.60
2018-08-22T19:34:30.288Z,53.60
2018-08-22T19:36:58.334Z,53.00
2018-08-22T19:39:28.512Z,46.00
2018-08-22T19:41:56.105Z,52.40
2018-08-22T19:44:23.943Z,51.80
2018-08-22T19:46:50.421Z,50.80
2018-08-22T19:49:18.446Z,46.80
2018-08-22T19:51:45.245Z,47.60
2018-08-22T19:54:11.711Z,49.00
2018-08-22T19:56:38.230Z,45.60
2018-08-22T19:59:06.035Z,49.00
2018-08-22T20:01:33.047Z,45.60
2018-08-22T20:04:00.700Z,50.60
2018-08-22T20:06:27.763Z,47.60
2018-08-22T20:08:55.664Z,43.40
2018-08-22T20:11:22.507Z,44.00
2018-08-22T20:13:49.328Z,49.80
2018-08-22T20:16:15.790Z,44.00
2018-08-22T20:18:44.188Z,42.20
2018-08-22T20:21:11.364Z,47.80
2018-08-22T20:23:38.921Z,49.60
2018-08-22T20:26:05.499Z,44.00
2018-08-22T20:28:32.443Z,54.20
2018-08-22T20:31:00.771Z,46.60
2018-08-22T20:33:28.271Z,52.20
2018-08-22T20:35:55.079Z,52.80
2018-08-22T20:38:21.601Z,52.40
2018-08-22T20:40:48.134Z,53.40
2018-08-22T20:43:15.945Z,51.60
2018-08-22T20:45:42.483Z,49.60
2018-08-22T20:48:08.978Z,42.40
2018-08-22T20:50:35.838Z,51.20
2018-08-22T20:53:02.603Z,50.20
2018-08-22T20:55:29.797Z,52.80
2018-08-22T20:57:56.622Z,40.80
2018-08-22T21:00:23.094Z,47.60
2018-08-22T21:02:49.700Z,44.60
2018-08-22T21:05:18.412Z,53.20
2018-08-22T21:07:45.665Z,49.80
2018-08-22T21:10:12.187Z,40.80
2018-08-22T21:12:39.043Z,43.60
2018-08-22T21:15:06.060Z,41.80
2018-08-22T21:17:32.523Z,40.40
2018-08-22T21:20:00.142Z,50.20
2018-08-22T21:22:26.641Z,41.60
2018-08-22T21:24:53.955Z,42.80
2018-08-22T21:27:21.389Z,48.60
2018-08-22T21:29:47.889Z,50.20
2018-08-22T21:32:14.386Z,42.80
2018-08-22T21:34:43.782Z,54.80
2018-08-22T21:37:10.234Z,47.80
2018-08-22T21:39:37.352Z,46.80
2018-08-22T21:42:04.969Z,50.00
2018-08-22T21:44:31.449Z,48.40
2018-08-22T21:46:57.942Z,41.60
2018-08-22T21:49:24.705Z,45.40
2018-08-22T21:51:51.969Z,43.00
2018-08-22T21:54:18.459Z,45.40
2018-08-22T21:56:45.210Z,47.20
2018-08-22T21:59:12.256Z,43.00
2018-08-22T22:01:38.715Z,52.60
2018-08-22T22:04:05.532Z,45.80
2018-08-22T22:06:32.012Z,64.00
2018-08-22T22:08:58.503Z,48.60
2018-08-22T22:11:25.282Z,61.80
2018-08-22T22:13:51.751Z,40.20
2018-08-22T22:16:18.249Z,45.40
2018-08-22T22:18:46.314Z,46.00
2018-08-22T22:21:12.814Z,61.60
2018-08-22T22:23:39.381Z,54.80
2018-08-22T22:26:06.256Z,50.00
2018-08-22T22:28:32.745Z,54.80
2018-08-22T22:30:59.285Z,64.60
2018-08-22T22:33:25.782Z,48.60
2018-08-22T22:35:53.247Z,62.00
2018-08-22T22:38:19.697Z,62.40
2018-08-22T22:40:46.137Z,63.40
2018-08-22T22:43:12.663Z,55.20
2018-08-22T22:45:39.421Z,51.20
2018-08-22T22:48:05.915Z,64.40
2018-08-22T22:50:32.390Z,59.80
2018-08-22T22:52:59.223Z,48.60
2018-08-22T22:55:25.841Z,59.40
2018-08-22T22:57:53.391Z,67.40
2018-08-22T23:00:20.673Z,60.00
2018-08-22T23:02:47.482Z,58.20
2018-08-22T23:05:14.037Z,56.60
2018-08-22T23:07:40.525Z,62.80
2018-08-22T23:10:06.980Z,55.20
2018-08-22T23:12:34.334Z,58.80
2018-08-22T23:15:01.477Z,55.80
2018-08-22T23:17:27.985Z,62.40
2018-08-22T23:19:54.760Z,51.40
2018-08-22T23:22:21.223Z,50.00
2018-08-22T23:24:47.710Z,58.20
2018-08-22T23:27:14.506Z,51.40
2018-08-22T23:29:41.472Z,55.20
2018-08-22T23:32:07.924Z,56.00
2018-08-22T23:34:34.403Z,57.80
2018-08-22T23:37:01.143Z,65.40
2018-08-22T23:39:27.602Z,64.00
2018-08-22T23:41:54.101Z,64.60
2018-08-22T23:44:20.565Z,57.40
2018-08-22T23:46:47.349Z,62.60
2018-08-22T23:49:13.833Z,53.40
2018-08-22T23:51:40.282Z,67.60
2018-08-22T23:54:08.671Z,50.80
2018-08-22T23:56:35.212Z,55.00
2018-08-22T23:59:02.337Z,49.20
